createdAt,value
2018-04-07T00:00:30.128Z,0
2018-04-07T00:01:30.232Z,0
2018-04-07T00:02:30.161Z,0
2018-04-07T00:03:30.250Z,0
2018-04-07T00:04:30.256Z,0
2018-04-07T00:05:30.172Z,0
2018-04-07T00:06:30.197Z,0
2018-04-07T00:07:30.198Z,0
2018-04-07T00:08:30.160Z,0
2018-04-07T00:09:30.292Z,0
2018-04-07T00:10:30.164Z,0
2018-04-07T00:11:30.145Z,0
2018-04-07T00:12:30.257Z,0
2018-04-07T00:13:30.197Z,0
2018-04-07T00:14:30.137Z,0
2018-04-07T00:15:30.263Z,0
2018-04-07T00:16:30.262Z,0
2018-04-07T00:17:30.207Z,0
2018-04-07T00:18:30.176Z,0
2018-04-07T00:19:30.282Z,0
2018-04-07T00:20:30.231Z,0
2018-04-07T00:21:30.258Z,0
2018-04-07T00:22:30.241Z,0
2018-04-07T00:23:30.148Z,0
2018-04-07T00:24:30.265Z,0
2018-04-07T00:25:30.174Z,0
2018-04-07T00:26:30.272Z,0
2018-04-07T00:27:30.220Z,0
2018-04-07T00:28:30.209Z,0
2018-04-07T00:29:30.221Z,0
2018-04-07T00:30:30.157Z,0
2018-04-07T00:31:30.180Z,0
2018-04-07T00:32:30.158Z,0
2018-04-07T00:33:30.213Z,0
2018-04-07T00:34:30.317Z,0
2018-04-07T00:35:30.153Z,0
2018-04-07T00:36:30.183Z,0
2018-04-07T00:37:30.278Z,0
2018-04-07T00:38:30.215Z,0
2018-04-07T00:39:30.164Z,0
2018-04-07T00:40:30.272Z,0
2018-04-07T00:41:30.184Z,0
2018-04-07T00:42:30.249Z,0
2018-04-07T00:43:30.252Z,0
2018-04-07T00:44:30.276Z,0
2018-04-07T00:45:30.163Z,0
2018-04-07T00:46:30.187Z,0
2018-04-07T00:47:30.224Z,0
2018-04-07T00:48:30.233Z,0
2018-04-07T00:49:30.281Z,0
2018-04-07T00:50:30.231Z,0
2018-04-07T00:51:30.276Z,0
2018-04-07T00:52:30.190Z,0
2018-04-07T00:53:30.280Z,0
2018-04-07T00:54:30.284Z,0
2018-04-07T00:55:30.284Z,0
2018-04-07T00:56:30.167Z,0
2018-04-07T00:57:30.280Z,0
2018-04-07T00:58:30.228Z,0
2018-04-07T00:59:30.237Z,0
2018-04-07T01:00:30.198Z,0
2018-04-07T01:01:30.205Z,0
2018-04-07T01:02:30.291Z,0
2018-04-07T01:03:30.299Z,0
2018-04-07T01:04:30.290Z,0
2018-04-07T01:05:30.240Z,0
2018-04-07T01:06:30.199Z,0
2018-04-07T01:07:30.291Z,0
2018-04-07T01:08:30.264Z,0
2018-04-07T01:09:30.207Z,0
2018-04-07T01:10:30.242Z,0
2018-04-07T01:11:30.178Z,0
2018-04-07T01:12:30.272Z,0
2018-04-07T01:13:30.295Z,0
2018-04-07T01:14:30.242Z,0
2018-04-07T01:15:30.203Z,0
2018-04-07T01:16:30.289Z,0
2018-04-07T01:17:30.181Z,0
2018-04-07T01:18:30.302Z,0
2018-04-07T01:19:30.298Z,0
2018-04-07T01:20:30.245Z,0
2018-04-07T01:21:30.276Z,0
2018-04-07T01:22:30.255Z,0
2018-04-07T01:23:30.303Z,0
2018-04-07T01:24:30.302Z,0
2018-04-07T01:25:30.300Z,0
2018-04-07T01:26:30.184Z,0
2018-04-07T01:27:30.256Z,0
2018-04-07T01:28:30.189Z,0
2018-04-07T01:29:30.272Z,0
2018-04-07T01:30:30.300Z,0
2018-04-07T01:31:30.301Z,0
2018-04-07T01:32:30.189Z,0
2018-04-07T01:33:30.299Z,0
2018-04-07T01:34:30.314Z,0
2018-04-07T01:35:30.259Z,0
2018-04-07T01:36:30.309Z,0
2018-04-07T01:37:30.315Z,0
2018-04-07T01:38:30.315Z,0
2018-04-07T01:39:30.201Z,0
2018-04-07T01:40:30.306Z,0
2018-04-07T01:41:30.310Z,0
2018-04-07T01:42:30.305Z,0
2018-04-07T01:43:30.310Z,0
2018-04-07T01:44:30.311Z,0
2018-04-07T01:45:30.310Z,0
2018-04-07T01:46:30.269Z,0
2018-04-07T01:47:30.323Z,0
2018-04-07T01:48:30.345Z,0
2018-04-07T01:49:30.266Z,0
2018-04-07T01:50:30.318Z,0
2018-04-07T01:51:30.314Z,0
2018-04-07T01:52:30.317Z,0
2018-04-07T01:53:30.267Z,0
2018-04-07T01:54:30.325Z,0
2018-04-07T01:55:30.265Z,0
2018-04-07T01:56:30.327Z,0
2018-04-07T01:57:30.271Z,0
2018-04-07T01:58:30.210Z,0
2018-04-07T01:59:30.201Z,0
2018-04-07T02:00:30.240Z,0
2018-04-07T02:01:30.329Z,0
2018-04-07T02:02:30.206Z,0
2018-04-07T02:03:30.208Z,0
2018-04-07T02:04:30.298Z,0
2018-04-07T02:05:30.233Z,0
2018-04-07T02:06:30.283Z,0
2018-04-07T02:07:30.298Z,0
2018-04-07T02:08:30.284Z,0
2018-04-07T02:09:30.236Z,0
2018-04-07T02:10:30.275Z,0
2018-04-07T02:11:30.211Z,0
2018-04-07T02:12:30.338Z,0
2018-04-07T02:13:30.335Z,0
2018-04-07T02:14:30.311Z,0
2018-04-07T02:15:30.287Z,0
2018-04-07T02:16:30.330Z,0
2018-04-07T02:17:30.216Z,0
2018-04-07T02:18:30.288Z,0
2018-04-07T02:19:30.317Z,0
2018-04-07T02:20:30.330Z,0
2018-04-07T02:21:30.244Z,0
2018-04-07T02:22:30.250Z,0
2018-04-07T02:23:30.336Z,0
2018-04-07T02:24:30.261Z,0
2018-04-07T02:25:30.230Z,0
2018-04-07T02:26:30.339Z,0
2018-04-07T02:27:30.336Z,0
2018-04-07T02:28:30.222Z,0
2018-04-07T02:29:30.295Z,0
2018-04-07T02:30:30.248Z,0
2018-04-07T02:31:30.328Z,0
2018-04-07T02:32:30.232Z,0
2018-04-07T02:33:30.234Z,0
2018-04-07T02:34:30.358Z,0
2018-04-07T02:35:30.291Z,0
2018-04-07T02:36:30.341Z,0
2018-04-07T02:37:30.326Z,0
2018-04-07T02:38:30.232Z,0
2018-04-07T02:39:30.228Z,0
2018-04-07T02:40:30.351Z,0
2018-04-07T02:41:30.304Z,0
2018-04-07T02:42:30.325Z,0
2018-04-07T02:43:30.239Z,0
2018-04-07T02:44:30.333Z,0
2018-04-07T02:45:30.344Z,0
2018-04-07T02:46:30.264Z,0
2018-04-07T02:47:30.297Z,0
2018-04-07T02:48:30.329Z,0
2018-04-07T02:49:30.267Z,0
2018-04-07T02:50:30.313Z,0
2018-04-07T02:51:30.269Z,0
2018-04-07T02:52:30.354Z,0
2018-04-07T02:53:30.358Z,0
2018-04-07T02:54:30.240Z,0
2018-04-07T02:55:30.271Z,0
2018-04-07T02:56:30.268Z,0
2018-04-07T02:57:30.275Z,0
2018-04-07T02:58:30.244Z,0
2018-04-07T02:59:30.307Z,0
2018-04-07T03:00:30.336Z,0
2018-04-07T03:01:30.359Z,0
2018-04-07T03:02:30.254Z,0
2018-04-07T03:03:30.243Z,0
2018-04-07T03:04:30.316Z,0
2018-04-07T03:05:30.344Z,0
2018-04-07T03:06:30.362Z,0
2018-04-07T03:07:30.308Z,0
2018-04-07T03:08:30.345Z,0
2018-04-07T03:09:30.375Z,0
2018-04-07T03:10:30.365Z,0
2018-04-07T03:11:30.274Z,0
2018-04-07T03:12:30.350Z,0
2018-04-07T03:13:30.279Z,0
2018-04-07T03:14:30.370Z,0
2018-04-07T03:15:30.324Z,0
2018-04-07T03:16:30.262Z,0
2018-04-07T03:17:30.344Z,0
2018-04-07T03:18:30.346Z,0
2018-04-07T03:19:30.258Z,0
2018-04-07T03:20:30.327Z,0
2018-04-07T03:21:30.375Z,0
2018-04-07T03:22:30.264Z,0
2018-04-07T03:23:30.378Z,0
2018-04-07T03:24:30.375Z,0
2018-04-07T03:25:30.383Z,0
2018-04-07T03:26:30.288Z,0
2018-04-07T03:27:30.372Z,0
2018-04-07T03:28:30.379Z,0
2018-04-07T03:29:30.378Z,0
2018-04-07T03:30:30.375Z,0
2018-04-07T03:31:30.296Z,0
2018-04-07T03:32:30.299Z,0
2018-04-07T03:33:30.266Z,0
2018-04-07T03:34:30.381Z,0
2018-04-07T03:35:30.331Z,0
2018-04-07T03:36:30.384Z,0
2018-04-07T03:37:30.358Z,0
2018-04-07T03:38:30.333Z,0
2018-04-07T03:39:30.359Z,0
2018-04-07T03:40:30.295Z,0
2018-04-07T03:41:30.357Z,0
2018-04-07T03:42:30.366Z,0
2018-04-07T03:43:30.303Z,0
2018-04-07T03:44:30.389Z,0
2018-04-07T03:45:30.333Z,0
2018-04-07T03:46:30.364Z,0
2018-04-07T03:47:30.299Z,0
2018-04-07T03:48:30.303Z,0
2018-04-07T03:49:30.336Z,0
2018-04-07T03:50:30.278Z,0
2018-04-07T03:51:30.369Z,0
2018-04-07T03:52:30.397Z,0
2018-04-07T03:53:30.286Z,0
2018-04-07T03:54:30.347Z,0
2018-04-07T03:55:30.341Z,0
2018-04-07T03:56:30.349Z,0
2018-04-07T03:57:30.369Z,0
2018-04-07T03:58:30.342Z,0
2018-04-07T03:59:30.352Z,0
2018-04-07T04:00:30.404Z,0
2018-04-07T04:01:30.391Z,0
2018-04-07T04:02:30.370Z,0
2018-04-07T04:03:30.350Z,0
2018-04-07T04:04:30.350Z,0
2018-04-07T04:05:30.310Z,0
2018-04-07T04:06:30.393Z,0
2018-04-07T04:07:30.318Z,0
2018-04-07T04:08:30.319Z,0
2018-04-07T04:09:30.288Z,0
2018-04-07T04:10:30.405Z,0
2018-04-07T04:11:30.402Z,0
2018-04-07T04:12:30.289Z,0
2018-04-07T04:13:30.351Z,0
2018-04-07T04:14:30.408Z,0
2018-04-07T04:15:30.403Z,0
2018-04-07T04:16:30.404Z,0
2018-04-07T04:17:30.297Z,0
2018-04-07T04:18:30.389Z,0
2018-04-07T04:19:30.364Z,0
2018-04-07T04:20:30.381Z,0
2018-04-07T04:21:30.317Z,0
2018-04-07T04:22:30.357Z,0
2018-04-07T04:23:30.296Z,0
2018-04-07T04:24:30.359Z,0
2018-04-07T04:25:30.323Z,0
2018-04-07T04:26:30.320Z,0
2018-04-07T04:27:30.299Z,0
2018-04-07T04:28:30.391Z,5
2018-04-07T04:29:30.414Z,5
2018-04-07T04:30:30.297Z,5
2018-04-07T04:31:30.414Z,5
2018-04-07T04:32:30.324Z,5
2018-04-07T04:33:30.421Z,11
2018-04-07T04:34:30.418Z,11
2018-04-07T04:35:30.417Z,11
2018-04-07T04:36:30.344Z,16
2018-04-07T04:37:30.368Z,16
2018-04-07T04:38:30.417Z,16
2018-04-07T04:39:30.333Z,16
2018-04-07T04:40:30.364Z,22
2018-04-07T04:41:30.308Z,22
2018-04-07T04:42:30.505Z,28
2018-04-07T04:43:30.377Z,28
2018-04-07T04:44:30.422Z,33
2018-04-07T04:45:30.376Z,33
2018-04-07T04:46:30.342Z,39
2018-04-07T04:47:30.423Z,39
2018-04-07T04:48:30.430Z,45
2018-04-07T04:49:30.341Z,50
2018-04-07T04:50:30.320Z,50
2018-04-07T04:51:30.423Z,56
2018-04-07T04:52:30.431Z,61
2018-04-07T04:53:30.346Z,67
2018-04-07T04:54:30.310Z,73
2018-04-07T04:55:30.381Z,78
2018-04-07T04:56:30.310Z,84
2018-04-07T04:57:30.374Z,90
2018-04-07T04:58:30.308Z,95
2018-04-07T04:59:30.369Z,101
2018-04-07T05:00:30.405Z,106
2018-04-07T05:01:30.385Z,112
2018-04-07T05:02:30.429Z,118
2018-04-07T05:03:30.313Z,123
2018-04-07T05:04:30.404Z,129
2018-04-07T05:05:30.408Z,129
2018-04-07T05:06:30.376Z,140
2018-04-07T05:07:30.312Z,146
2018-04-07T05:08:30.445Z,151
2018-04-07T05:09:30.432Z,163
2018-04-07T05:10:30.471Z,168
2018-04-07T05:11:30.396Z,174
2018-04-07T05:12:30.442Z,180
2018-04-07T05:13:30.417Z,185
2018-04-07T05:14:30.448Z,191
2018-04-07T05:15:30.318Z,196
2018-04-07T05:16:30.416Z,202
2018-04-07T05:17:30.352Z,213
2018-04-07T05:18:30.327Z,219
2018-04-07T05:19:30.325Z,225
2018-04-07T05:20:30.323Z,236
2018-04-07T05:21:30.418Z,241
2018-04-07T05:22:30.357Z,247
2018-04-07T05:23:30.357Z,258
2018-04-07T05:24:30.422Z,264
2018-04-07T05:25:30.353Z,270
2018-04-07T05:26:30.330Z,281
2018-04-07T05:27:30.354Z,286
2018-04-07T05:28:30.445Z,286
2018-04-07T05:29:30.364Z,292
2018-04-07T05:30:30.366Z,298
2018-04-07T05:31:30.362Z,309
2018-04-07T05:32:30.448Z,309
2018-04-07T05:33:30.360Z,315
2018-04-07T05:34:30.336Z,326
2018-04-07T05:35:30.401Z,331
2018-04-07T05:36:30.351Z,337
2018-04-07T05:37:30.460Z,343
2018-04-07T05:38:30.336Z,348
2018-04-07T05:39:30.339Z,354
2018-04-07T05:40:30.382Z,360
2018-04-07T05:41:30.434Z,365
2018-04-07T05:42:30.397Z,371
2018-04-07T05:43:30.436Z,376
2018-04-07T05:44:30.427Z,376
2018-04-07T05:45:30.462Z,382
2018-04-07T05:46:30.461Z,382
2018-04-07T05:47:30.465Z,393
2018-04-07T05:48:30.462Z,399
2018-04-07T05:49:30.401Z,416
2018-04-07T05:50:30.463Z,438
2018-04-07T05:51:30.460Z,579
2018-04-07T05:52:30.403Z,793
2018-04-07T05:53:30.459Z,838
2018-04-07T05:54:30.441Z,815
2018-04-07T05:55:30.404Z,804
2018-04-07T05:56:30.463Z,804
2018-04-07T05:57:30.356Z,781
2018-04-07T05:58:30.403Z,691
2018-04-07T05:59:30.380Z,658
2018-04-07T06:00:30.396Z,691
2018-04-07T06:01:30.378Z,736
2018-04-07T06:02:30.383Z,770
2018-04-07T06:03:30.468Z,804
2018-04-07T06:04:30.382Z,793
2018-04-07T06:05:30.472Z,826
2018-04-07T06:06:30.425Z,894
2018-04-07T06:07:30.360Z,956
2018-04-07T06:08:30.356Z,995
2018-04-07T06:09:30.438Z,1006
2018-04-07T06:10:30.474Z,961
2018-04-07T06:11:30.361Z,928
2018-04-07T06:12:30.365Z,905
2018-04-07T06:13:30.484Z,883
2018-04-07T06:14:30.480Z,866
2018-04-07T06:15:30.361Z,877
2018-04-07T06:16:30.433Z,888
2018-04-07T06:17:30.432Z,928
2018-04-07T06:18:30.480Z,984
2018-04-07T06:19:30.388Z,1035
2018-04-07T06:20:30.397Z,1063
2018-04-07T06:21:30.459Z,1096
2018-04-07T06:22:30.391Z,1153
2018-04-07T06:23:30.398Z,1192
2018-04-07T06:24:30.478Z,1248
2018-04-07T06:25:30.458Z,1276
2018-04-07T06:26:30.511Z,1288
2018-04-07T06:27:30.431Z,1299
2018-04-07T06:28:30.359Z,1333
2018-04-07T06:29:30.443Z,1383
2018-04-07T06:30:30.400Z,1411
2018-04-07T06:31:30.401Z,1417
2018-04-07T06:32:30.513Z,1423
2018-04-07T06:33:30.370Z,1445
2018-04-07T06:34:30.441Z,1479
2018-04-07T06:35:30.383Z,1490
2018-04-07T06:36:30.371Z,1524
2018-04-07T06:37:30.439Z,1575
2018-04-07T06:38:30.396Z,1625
2018-04-07T06:39:30.487Z,1659
2018-04-07T06:40:30.489Z,1698
2018-04-07T06:41:30.466Z,1738
2018-04-07T06:42:30.460Z,1760
2018-04-07T06:43:30.494Z,1771
2018-04-07T06:44:30.373Z,1783
2018-04-07T06:45:30.490Z,1800
2018-04-07T06:46:30.388Z,1710
2018-04-07T06:47:30.407Z,1693
2018-04-07T06:48:30.469Z,1828
2018-04-07T06:49:30.410Z,1895
2018-04-07T06:50:30.474Z,1912
2018-04-07T06:51:30.379Z,1878
2018-04-07T06:52:30.472Z,1912
2018-04-07T06:53:30.508Z,1935
2018-04-07T06:54:30.443Z,1929
2018-04-07T06:55:30.384Z,1935
2018-04-07T06:56:30.450Z,1861
2018-04-07T06:57:30.497Z,1884
2018-04-07T06:58:30.452Z,1985
2018-04-07T06:59:30.479Z,1980
2018-04-07T07:00:30.508Z,1935
2018-04-07T07:01:30.432Z,1974
2018-04-07T07:02:30.389Z,1951
2018-04-07T07:03:30.477Z,1951
2018-04-07T07:04:30.459Z,2047
2018-04-07T07:05:30.515Z,2092
2018-04-07T07:06:30.484Z,2098
2018-04-07T07:07:30.415Z,2092
2018-04-07T07:08:30.510Z,2070
2018-04-07T07:09:30.556Z,2058
2018-04-07T07:10:30.392Z,2143
2018-04-07T07:11:30.479Z,2081
2018-04-07T07:12:30.506Z,2098
2018-04-07T07:13:30.404Z,2092
2018-04-07T07:14:30.487Z,2109
2018-04-07T07:15:30.392Z,2165
2018-04-07T07:16:30.525Z,2002
2018-04-07T07:17:30.430Z,1996
2018-04-07T07:18:30.464Z,1614
2018-04-07T07:19:30.520Z,2053
2018-04-07T07:20:30.390Z,2160
2018-04-07T07:21:30.410Z,2182
2018-04-07T07:22:30.430Z,2210
2018-04-07T07:23:30.514Z,2176
2018-04-07T07:24:30.521Z,2238
2018-04-07T07:25:30.434Z,2255
2018-04-07T07:26:30.448Z,2244
2018-04-07T07:27:30.404Z,2266
2018-04-07T07:28:30.478Z,2272
2018-04-07T07:29:30.500Z,2351
2018-04-07T07:30:30.474Z,2351
2018-04-07T07:31:30.404Z,2373
2018-04-07T07:32:30.423Z,2435
2018-04-07T07:33:30.470Z,2503
2018-04-07T07:34:30.451Z,2480
2018-04-07T07:35:30.511Z,2475
2018-04-07T07:36:30.571Z,2463
2018-04-07T07:37:30.572Z,2491
2018-04-07T07:38:30.579Z,2542
2018-04-07T07:39:30.546Z,2542
2018-04-07T07:40:30.568Z,2604
2018-04-07T07:41:30.552Z,2694
2018-04-07T07:42:30.452Z,2711
2018-04-07T07:43:30.469Z,2660
2018-04-07T07:44:30.525Z,2525
2018-04-07T07:45:30.555Z,2638
2018-04-07T07:46:30.569Z,2677
2018-04-07T07:47:30.461Z,2694
2018-04-07T07:48:30.581Z,2688
2018-04-07T07:49:30.534Z,2435
2018-04-07T07:50:30.573Z,2581
2018-04-07T07:51:30.554Z,2587
2018-04-07T07:52:30.513Z,2581
2018-04-07T07:53:30.585Z,2638
2018-04-07T07:54:30.528Z,2531
2018-04-07T07:55:30.593Z,2407
2018-04-07T07:56:30.479Z,2643
2018-04-07T07:57:30.594Z,2632
2018-04-07T07:58:30.560Z,2660
2018-04-07T07:59:30.521Z,2812
2018-04-07T08:00:30.493Z,2868
2018-04-07T08:01:30.529Z,2925
2018-04-07T08:02:30.532Z,2964
2018-04-07T08:03:30.534Z,2981
2018-04-07T08:04:30.588Z,3003
2018-04-07T08:05:30.565Z,3009
2018-04-07T08:06:30.495Z,3020
2018-04-07T08:07:30.569Z,3015
2018-04-07T08:08:30.471Z,3015
2018-04-07T08:09:30.570Z,3060
2018-04-07T08:10:30.498Z,3105
2018-04-07T08:11:30.571Z,3116
2018-04-07T08:12:30.498Z,3155
2018-04-07T08:13:30.575Z,3183
2018-04-07T08:14:30.501Z,3206
2018-04-07T08:15:30.503Z,3211
2018-04-07T08:16:30.573Z,3195
2018-04-07T08:17:30.521Z,3166
2018-04-07T08:18:30.577Z,3172
2018-04-07T08:19:30.507Z,3155
2018-04-07T08:20:30.580Z,3172
2018-04-07T08:21:30.505Z,3234
2018-04-07T08:22:30.592Z,3262
2018-04-07T08:23:30.508Z,3296
2018-04-07T08:24:30.582Z,3301
2018-04-07T08:25:30.508Z,3082
2018-04-07T08:26:30.587Z,3110
2018-04-07T08:27:30.508Z,3369
2018-04-07T08:28:30.578Z,3369
2018-04-07T08:29:30.513Z,3436
2018-04-07T08:30:30.597Z,3487
2018-04-07T08:31:30.515Z,3526
2018-04-07T08:32:30.581Z,3555
2018-04-07T08:33:30.513Z,3555
2018-04-07T08:34:30.581Z,3555
2018-04-07T08:35:30.540Z,3436
2018-04-07T08:36:30.610Z,3560
2018-04-07T08:37:30.590Z,3577
2018-04-07T08:38:30.609Z,3605
2018-04-07T08:39:30.671Z,3616
2018-04-07T08:40:30.614Z,3639
2018-04-07T08:41:30.493Z,3673
2018-04-07T08:42:30.585Z,3712
2018-04-07T08:43:30.620Z,3735
2018-04-07T08:44:30.611Z,3746
2018-04-07T08:45:30.493Z,3740
2018-04-07T08:46:30.511Z,3695
2018-04-07T08:47:30.566Z,3757
2018-04-07T08:48:30.551Z,3785
2018-04-07T08:49:30.571Z,3813
2018-04-07T08:50:30.623Z,3853
2018-04-07T08:51:30.557Z,3858
2018-04-07T08:52:30.558Z,3892
2018-04-07T08:53:30.654Z,3948
2018-04-07T08:54:30.532Z,3965
2018-04-07T08:55:30.653Z,3909
2018-04-07T08:56:30.621Z,3886
2018-04-07T08:57:30.596Z,3870
2018-04-07T08:58:30.625Z,3892
2018-04-07T08:59:30.629Z,3915
2018-04-07T09:00:30.568Z,3915
2018-04-07T09:01:30.566Z,3881
2018-04-07T09:02:30.629Z,3853
2018-04-07T09:03:30.601Z,3830
2018-04-07T09:04:30.558Z,3825
2018-04-07T09:05:30.619Z,3847
2018-04-07T09:06:30.603Z,3864
2018-04-07T09:07:30.519Z,3892
2018-04-07T09:08:30.564Z,3943
2018-04-07T09:09:30.629Z,3943
2018-04-07T09:10:30.661Z,3943
2018-04-07T09:11:30.522Z,3948
2018-04-07T09:12:30.577Z,3988
2018-04-07T09:13:30.570Z,4005
2018-04-07T09:14:30.512Z,3954
2018-04-07T09:15:30.610Z,3909
2018-04-07T09:16:30.546Z,3909
2018-04-07T09:17:30.517Z,3920
2018-04-07T09:18:30.599Z,3937
2018-04-07T09:19:30.675Z,3965
2018-04-07T09:20:30.602Z,4095
2018-04-07T09:21:30.519Z,4168
2018-04-07T09:22:30.597Z,4224
2018-04-07T09:23:30.593Z,4258
2018-04-07T09:24:30.565Z,4314
2018-04-07T09:25:30.642Z,4303
2018-04-07T09:26:30.584Z,4241
2018-04-07T09:27:30.516Z,4173
2018-04-07T09:28:30.650Z,4128
2018-04-07T09:29:30.616Z,4123
2018-04-07T09:30:30.524Z,4061
2018-04-07T09:31:30.653Z,4117
2018-04-07T09:32:30.522Z,4196
2018-04-07T09:33:30.599Z,4151
2018-04-07T09:34:30.618Z,4095
2018-04-07T09:35:30.644Z,4100
2018-04-07T09:36:30.589Z,4083
2018-04-07T09:37:30.522Z,4083
2018-04-07T09:38:30.529Z,4083
2018-04-07T09:39:30.654Z,4140
2018-04-07T09:40:30.525Z,4213
2018-04-07T09:41:30.547Z,4269
2018-04-07T09:42:30.545Z,4275
2018-04-07T09:43:30.587Z,4303
2018-04-07T09:44:30.588Z,4314
2018-04-07T09:45:30.646Z,4291
2018-04-07T09:46:30.534Z,4308
2018-04-07T09:47:30.595Z,4308
2018-04-07T09:48:30.655Z,4308
2018-04-07T09:49:30.652Z,4376
2018-04-07T09:50:30.630Z,4381
2018-04-07T09:51:30.631Z,4426
2018-04-07T09:52:30.603Z,4381
2018-04-07T09:53:30.634Z,4308
2018-04-07T09:54:30.657Z,4291
2018-04-07T09:55:30.560Z,4297
2018-04-07T09:56:30.614Z,4376
2018-04-07T09:57:30.637Z,4190
2018-04-07T09:58:30.531Z,4314
2018-04-07T09:59:30.616Z,4466
2018-04-07T10:00:30.600Z,4500
2018-04-07T10:01:30.637Z,4275
2018-04-07T10:02:30.606Z,4269
2018-04-07T10:03:30.596Z,4061
2018-04-07T10:04:30.673Z,3611
2018-04-07T10:05:30.631Z,3971
2018-04-07T10:06:30.510Z,3960
2018-04-07T10:07:30.594Z,3875
2018-04-07T10:08:30.547Z,3735
2018-04-07T10:09:30.571Z,3830
2018-04-07T10:10:30.583Z,3819
2018-04-07T10:11:30.632Z,3943
2018-04-07T10:12:30.537Z,4117
2018-04-07T10:13:30.645Z,4201
2018-04-07T10:14:30.635Z,4291
2018-04-07T10:15:30.579Z,4455
2018-04-07T10:16:30.617Z,4477
2018-04-07T10:17:30.583Z,4488
2018-04-07T10:18:30.569Z,4505
2018-04-07T10:19:30.679Z,4528
2018-04-07T10:20:30.653Z,4606
2018-04-07T10:21:30.670Z,3836
2018-04-07T10:22:30.555Z,4702
2018-04-07T10:23:30.852Z,4668
2018-04-07T10:24:30.624Z,4657
2018-04-07T10:25:30.652Z,4635
2018-04-07T10:26:30.586Z,4595
2018-04-07T10:27:30.658Z,4595
2018-04-07T10:28:30.582Z,4584
2018-04-07T10:29:30.659Z,4511
2018-04-07T10:30:30.588Z,4477
2018-04-07T10:31:30.657Z,4505
2018-04-07T10:32:30.585Z,4578
2018-04-07T10:33:30.659Z,4640
2018-04-07T10:34:30.663Z,4685
2018-04-07T10:35:30.635Z,4719
2018-04-07T10:36:30.681Z,4708
2018-04-07T10:37:30.693Z,4623
2018-04-07T10:38:30.666Z,4539
2018-04-07T10:39:30.682Z,4545
2018-04-07T10:40:30.685Z,4573
2018-04-07T10:41:30.689Z,4376
2018-04-07T10:42:30.661Z,4668
2018-04-07T10:43:30.682Z,4702
2018-04-07T10:44:30.659Z,4770
2018-04-07T10:45:30.642Z,4848
2018-04-07T10:46:30.691Z,4876
2018-04-07T10:47:30.668Z,4837
2018-04-07T10:48:30.563Z,4786
2018-04-07T10:49:30.587Z,4719
2018-04-07T10:50:30.634Z,4657
2018-04-07T10:51:30.644Z,4623
2018-04-07T10:52:30.704Z,4646
2018-04-07T10:53:30.636Z,4713
2018-04-07T10:54:30.580Z,4764
2018-04-07T10:55:30.692Z,4725
2018-04-07T10:56:30.698Z,4708
2018-04-07T10:57:30.614Z,4725
2018-04-07T10:58:30.702Z,4775
2018-04-07T10:59:30.668Z,4781
2018-04-07T11:00:30.613Z,4702
2018-04-07T11:01:30.594Z,4612
2018-04-07T11:02:30.648Z,4623
2018-04-07T11:03:30.639Z,4651
2018-04-07T11:04:30.633Z,4685
2018-04-07T11:05:30.702Z,4696
2018-04-07T11:06:30.698Z,4730
2018-04-07T11:07:30.638Z,4702
2018-04-07T11:08:30.695Z,4730
2018-04-07T11:09:30.636Z,4770
2018-04-07T11:10:30.604Z,4775
2018-04-07T11:11:30.714Z,4747
2018-04-07T11:12:30.649Z,4741
2018-04-07T11:13:30.680Z,4730
2018-04-07T11:14:30.636Z,4539
2018-04-07T11:15:30.638Z,4612
2018-04-07T11:16:30.609Z,4651
2018-04-07T11:17:30.607Z,4753
2018-04-07T11:18:30.714Z,4848
2018-04-07T11:19:30.710Z,4831
2018-04-07T11:20:30.684Z,4730
2018-04-07T11:21:30.647Z,4618
2018-04-07T11:22:30.653Z,4500
2018-04-07T11:23:30.644Z,4365
2018-04-07T11:24:30.713Z,4213
2018-04-07T11:25:30.690Z,4050
2018-04-07T11:26:30.624Z,4027
2018-04-07T11:27:30.692Z,4111
2018-04-07T11:28:30.623Z,4218
2018-04-07T11:29:30.695Z,4303
2018-04-07T11:30:30.628Z,4449
2018-04-07T11:31:30.694Z,4601
2018-04-07T11:32:30.627Z,4680
2018-04-07T11:33:30.697Z,4663
2018-04-07T11:34:30.625Z,4657
2018-04-07T11:35:30.694Z,4606
2018-04-07T11:36:30.684Z,4601
2018-04-07T11:37:30.688Z,4606
2018-04-07T11:38:30.684Z,4606
2018-04-07T11:39:30.660Z,4635
2018-04-07T11:40:30.657Z,4657
2018-04-07T11:41:30.604Z,4719
2018-04-07T11:42:30.661Z,4781
2018-04-07T11:43:30.639Z,4775
2018-04-07T11:44:30.696Z,4719
2018-04-07T11:45:30.642Z,4595
2018-04-07T11:46:30.654Z,4438
2018-04-07T11:47:30.633Z,4713
2018-04-07T11:48:30.663Z,4713
2018-04-07T11:49:30.577Z,4651
2018-04-07T11:50:30.649Z,4618
2018-04-07T11:51:30.576Z,4635
2018-04-07T11:52:30.684Z,4668
2018-04-07T11:53:30.633Z,4674
2018-04-07T11:54:30.593Z,4640
2018-04-07T11:55:30.661Z,4618
2018-04-07T11:56:30.706Z,4601
2018-04-07T11:57:30.712Z,4595
2018-04-07T11:58:30.718Z,4573
2018-04-07T11:59:30.756Z,4567
2018-04-07T12:00:30.733Z,4545
2018-04-07T12:01:30.689Z,4505
2018-04-07T12:02:30.815Z,4522
2018-04-07T12:03:30.714Z,4561
2018-04-07T12:04:30.713Z,4629
2018-04-07T12:05:30.632Z,4651
2018-04-07T12:06:30.715Z,4668
2018-04-07T12:07:30.649Z,4640
2018-04-07T12:08:30.716Z,4595
2018-04-07T12:09:30.648Z,4595
2018-04-07T12:10:30.720Z,4567
2018-04-07T12:11:30.697Z,4522
2018-04-07T12:12:30.818Z,4511
2018-04-07T12:13:30.716Z,4528
2018-04-07T12:14:30.652Z,4539
2018-04-07T12:15:30.720Z,4550
2018-04-07T12:16:30.652Z,4528
2018-04-07T12:17:30.719Z,4483
2018-04-07T12:18:30.650Z,4466
2018-04-07T12:19:30.719Z,4466
2018-04-07T12:20:30.650Z,4488
2018-04-07T12:21:30.720Z,4483
2018-04-07T12:22:30.653Z,4466
2018-04-07T12:23:30.737Z,4466
2018-04-07T12:24:30.654Z,4494
2018-04-07T12:25:30.719Z,4500
2018-04-07T12:26:30.708Z,4511
2018-04-07T12:27:30.713Z,4516
2018-04-07T12:28:30.714Z,4573
2018-04-07T12:29:30.644Z,4601
2018-04-07T12:30:30.727Z,4606
2018-04-07T12:31:30.635Z,4601
2018-04-07T12:32:30.682Z,4528
2018-04-07T12:33:30.717Z,4477
2018-04-07T12:34:30.633Z,4432
2018-04-07T12:35:30.679Z,4387
2018-04-07T12:36:30.730Z,4348
2018-04-07T12:37:30.666Z,4303
2018-04-07T12:38:30.664Z,4286
2018-04-07T12:39:30.734Z,4258
2018-04-07T12:40:30.674Z,4224
2018-04-07T12:41:30.733Z,4224
2018-04-07T12:42:30.671Z,4224
2018-04-07T12:43:30.739Z,4224
2018-04-07T12:44:30.736Z,4235
2018-04-07T12:45:30.672Z,4269
2018-04-07T12:46:30.671Z,4280
2018-04-07T12:47:30.669Z,4303
2018-04-07T12:48:30.742Z,4258
2018-04-07T12:49:30.674Z,4207
2018-04-07T12:50:30.761Z,4134
2018-04-07T12:51:30.679Z,4089
2018-04-07T12:52:30.740Z,4095
2018-04-07T12:53:30.674Z,4100
2018-04-07T12:54:30.741Z,4061
2018-04-07T12:55:30.678Z,4078
2018-04-07T12:56:30.740Z,4140
2018-04-07T12:57:30.609Z,4224
2018-04-07T12:58:30.630Z,4331
2018-04-07T12:59:30.737Z,4342
2018-04-07T13:00:30.628Z,4325
2018-04-07T13:01:30.733Z,4286
2018-04-07T13:02:30.777Z,4190
2018-04-07T13:03:30.629Z,4117
2018-04-07T13:04:30.734Z,4072
2018-04-07T13:05:30.703Z,4055
2018-04-07T13:06:30.715Z,4021
2018-04-07T13:07:30.755Z,3971
2018-04-07T13:08:30.750Z,3926
2018-04-07T13:09:30.753Z,3903
2018-04-07T13:10:30.779Z,3847
2018-04-07T13:11:30.752Z,3847
2018-04-07T13:12:30.780Z,3841
2018-04-07T13:13:30.714Z,3819
2018-04-07T13:14:30.728Z,3740
2018-04-07T13:15:30.778Z,3802
2018-04-07T13:16:30.655Z,3825
2018-04-07T13:17:30.625Z,3813
2018-04-07T13:18:30.737Z,3819
2018-04-07T13:19:30.630Z,3796
2018-04-07T13:20:30.695Z,3757
2018-04-07T13:21:30.653Z,3706
2018-04-07T13:22:30.740Z,3678
2018-04-07T13:23:30.624Z,3645
2018-04-07T13:24:30.743Z,3650
2018-04-07T13:25:30.652Z,3650
2018-04-07T13:26:30.711Z,3628
2018-04-07T13:27:30.766Z,3656
2018-04-07T13:28:30.727Z,3678
2018-04-07T13:29:30.850Z,3661
2018-04-07T13:30:30.736Z,3673
2018-04-07T13:31:30.773Z,3701
2018-04-07T13:32:30.768Z,3645
2018-04-07T13:33:38.445Z,3656
2018-04-07T13:34:30.738Z,3633
2018-04-07T13:35:30.798Z,3622
2018-04-07T13:36:30.724Z,3661
2018-04-07T13:37:30.674Z,3667
2018-04-07T13:38:30.675Z,3639
2018-04-07T13:39:30.767Z,3639
2018-04-07T13:40:30.760Z,3616
2018-04-07T13:41:30.678Z,3583
2018-04-07T13:42:30.684Z,3538
2018-04-07T13:43:30.772Z,3538
2018-04-07T13:44:30.765Z,3481
2018-04-07T13:45:30.711Z,3498
2018-04-07T13:46:30.747Z,3481
2018-04-07T13:47:30.769Z,3470
2018-04-07T13:48:30.776Z,3436
2018-04-07T13:49:30.747Z,3403
2018-04-07T13:50:30.740Z,3363